This is the latest recevied weather packets stored in our database for station/object AC5CM. If no packets are shown the sender has not sent any weather packets the latest 10 day(s).
| Time | Temp. | Humidity | Pressure | Rain* | Wind** | Luminosity | Snow |
|---|---|---|---|---|---|---|---|
| 1777587459 | 28.89° C | 65% | 1008.4 hPa | 0 mm | - | - | - |
| 1777587157 | 28.89° C | 66% | 1008.5 hPa | 0 mm | - | - | - |
| 1777586851 | 28.89° C | 66% | 1008.6 hPa | 0 mm | - | - | - |
| 1777586547 | 29.44° C | 64% | 1008.4 hPa | 0 mm | - | - | - |
| 1777586243 | 29.44° C | 65% | 1008.3 hPa | 0 mm | - | - | - |
| 1777585941 | 29.44° C | 65% | 1008.5 hPa | 0 mm | - | - | - |
| 1777585636 | 29.44° C | 64% | 1008.5 hPa | 0 mm | - | - | - |
| 1777585331 | 29.44° C | 65% | 1008.6 hPa | 0 mm | - | - | - |
| 1777585026 | 29.44° C | 64% | 1008.9 hPa | 0 mm | - | - | - |
| 1777584723 | 30° C | 64% | 1009.1 hPa | 0 mm | - | - | - |
| 1777584421 | 30° C | 65% | 1009 hPa | 0 mm | - | - | - |
| 1777584117 | 29.44° C | 67% | 1009.2 hPa | 0 mm | - | - | - |
| 1777583816 | 29.44° C | 66% | 1009.2 hPa | 0 mm | - | - | - |
| 1777583511 | 28.89° C | 67% | 1009.5 hPa | 0 mm | - | - | - |
| 1777583205 | 30° C | 65% | 1009.5 hPa | 0 mm | - | - | - |
| 1777582900 | 30.56° C | 62% | 1009.4 hPa | 0 mm | - | - | - |
| 1777582598 | 30.56° C | 64% | 1009.6 hPa | 0 mm | - | - | - |
| 1777582293 | 31.67° C | 61% | 1009.7 hPa | 0 mm | - | - | - |
| 1777581991 | 33.33° C | 56% | 1009.8 hPa | 0 mm | - | - | - |
| 1777581686 | 33.89° C | 51% | 1009.8 hPa | 0 mm | - | - | - |
| 1777581381 | 34.44° C | 48% | 1009.7 hPa | 0 mm | - | - | - |
| 1777581081 | 34.44° C | 47% | 1009.8 hPa | 0 mm | - | - | - |
| 1777580779 | 33.33° C | 50% | 1009.7 hPa | 0 mm | - | - | - |
| 1777580476 | 33.33° C | 51% | 1009.8 hPa | 0 mm | - | - | - |
| 1777580171 | 32.78° C | 49% | 1009.7 hPa | 0 mm | - | - | - |
* Rain latest hour (hover to see other rain measurements)
** Current wind speed in m/s (hover to see current wind gust speed)